Time;durP1;ratioP1;P1;durP2;ratioP2;P2;SDS_P1;SDS_P2;PMS_P1;PMS_P2;Temp;Humidity;BMP_temperature;BMP_pressure;BME280_temperature;BME280_humidity;BME280_pressure;Samples;Min_cycle;Max_cycle;Signal;HPM_P1;HPM_P2
2024/01/29 00:01:58;;;;;;;5.73;2.40;;;;;;;17.27;47.07;102275.09;10411097;28;20287;-58
2024/01/29 00:06:59;;;;;;;5.40;3.13;;;;;;;17.33;47.56;102270.63;10411433;28;20302;-58
2024/01/29 00:11:59;;;;;;;3.92;2.85;;;;;;;17.33;48.28;102274.13;10420764;28;20319;-57
2024/01/29 00:17:00;;;;;;;4.30;2.50;;;;;;;17.42;47.58;102278.00;10410160;28;20493;-58
2024/01/29 00:22:01;;;;;;;4.97;3.25;;;;;;;17.41;47.68;102273.69;10410370;28;20025;-58
2024/01/29 00:27:01;;;;;;;3.55;2.58;;;;;;;17.41;47.00;102273.69;10409648;28;20033;-58
2024/01/29 00:32:02;;;;;;;3.63;2.50;;;;;;;17.40;47.77;102272.03;10436291;28;20029;-57
2024/01/29 00:37:03;;;;;;;2.92;2.00;;;;;;;17.40;47.99;102271.22;10409394;28;20458;-57
2024/01/29 00:42:03;;;;;;;5.25;2.63;;;;;;;17.37;47.64;102264.50;10409682;28;20057;-57
2024/01/29 00:47:04;;;;;;;4.05;2.70;;;;;;;17.38;47.14;102273.34;10409264;28;20109;-57
2024/01/29 00:52:06;;;;;;;3.78;2.70;;;;;;;17.35;46.51;102271.19;10416899;28;20383;-57
2024/01/29 00:57:06;;;;;;;4.00;2.40;;;;;;;17.35;47.88;102268.50;10409722;28;20032;-58
2024/01/29 01:02:07;;;;;;;4.68;3.08;;;;;;;17.36;46.69;102256.72;10408987;28;20109;-57
2024/01/29 01:07:07;;;;;;;3.93;2.70;;;;;;;17.37;46.80;102271.72;10408753;28;20076;-57
2024/01/29 01:12:07;;;;;;;3.73;2.77;;;;;;;17.37;47.13;102279.78;10439424;28;20375;-57
2024/01/29 01:17:08;;;;;;;5.27;2.83;;;;;;;17.37;47.23;102267.19;10448125;28;20290;-57
2024/01/29 01:22:08;;;;;;;3.80;2.70;;;;;;;17.39;47.27;102275.78;10451794;28;20275;-57
2024/01/29 01:27:10;;;;;;;3.47;2.67;;;;;;;17.40;46.75;102277.41;10457649;28;20071;-58
2024/01/29 01:32:10;;;;;;;5.38;2.63;;;;;;;17.37;47.54;102282.47;10460789;28;20672;-56
2024/01/29 01:37:10;;;;;;;4.70;2.30;;;;;;;17.36;47.36;102281.66;10416132;28;20013;-57
2024/01/29 01:42:11;;;;;;;5.37;3.03;;;;;;;17.35;47.70;102282.72;10416482;28;20908;-58
2024/01/29 01:47:11;;;;;;;3.65;2.10;;;;;;;17.35;47.52;102282.72;10415465;28;20350;-57
2024/01/29 01:52:11;;;;;;;5.37;2.43;;;;;;;17.37;46.61;102282.47;10416361;28;20032;-57
2024/01/29 01:57:12;;;;;;;3.80;2.42;;;;;;;17.39;46.93;102293.75;10415171;28;20276;-58
2024/01/29 02:02:12;;;;;;;3.15;2.38;;;;;;;17.39;46.39;102291.06;10415777;28;20022;-57
2024/01/29 02:07:13;;;;;;;3.58;2.42;;;;;;;17.35;47.68;102304.16;10416844;28;20360;-57
2024/01/29 02:12:13;;;;;;;4.05;2.70;;;;;;;17.37;47.03;102294.00;10424694;28;20033;-58
2024/01/29 02:17:13;;;;;;;3.25;2.13;;;;;;;17.36;47.14;102297.75;10414570;28;20079;-57
2024/01/29 02:22:14;;;;;;;4.05;2.55;;;;;;;17.36;46.52;102294.25;10414494;28;20542;-57
2024/01/29 02:27:14;;;;;;;3.83;2.10;;;;;;;17.36;47.11;102295.06;10414578;28;20026;-58
2024/01/29 02:32:15;;;;;;;3.60;2.00;;;;;;;17.37;47.48;102285.94;10439904;28;20295;-57
2024/01/29 02:37:15;;;;;;;4.05;2.08;;;;;;;17.35;46.49;102289.94;10413517;28;20268;-58
2024/01/29 02:42:19;;;;;;;2.47;1.80;;;;;;;17.36;46.81;102281.66;10414244;28;20021;-57
2024/01/29 02:47:19;;;;;;;3.03;2.05;;;;;;;17.36;46.53;102295.06;10412451;28;20279;-57
2024/01/29 02:52:20;;;;;;;4.20;2.57;;;;;;;17.37;46.57;102296.69;10413871;28;20025;-57
2024/01/29 02:57:23;;;;;;;2.83;1.98;;;;;;;17.37;47.35;102294.00;10413159;28;20359;-58
2024/01/29 03:02:24;;;;;;;3.13;2.22;;;;;;;17.38;46.57;102284.06;10413678;28;20457;-58
2024/01/29 03:07:24;;;;;;;2.55;2.05;;;;;;;17.37;46.66;102287.81;10417597;28;20032;-57
2024/01/29 03:12:24;;;;;;;3.63;2.40;;;;;;;17.38;45.54;102281.41;10420420;28;20132;-57
2024/01/29 03:17:25;;;;;;;3.30;2.50;;;;;;;17.35;46.44;102281.91;10412576;28;21012;-57
2024/01/29 03:22:25;;;;;;;5.57;2.37;;;;;;;17.39;45.45;102286.50;10412108;28;20276;-57
2024/01/29 03:27:25;;;;;;;3.60;2.42;;;;;;;17.39;46.71;102291.88;10412248;28;20694;-57
2024/01/29 03:32:26;;;;;;;5.20;2.47;;;;;;;17.38;46.13;102295.63;10439184;28;20878;-57
2024/01/29 03:37:27;;;;;;;3.17;2.20;;;;;;;17.35;46.50;102293.44;10412313;28;20280;-57
2024/01/29 03:42:27;;;;;;;3.35;2.40;;;;;;;17.36;45.91;102295.06;10411260;28;20291;-58
2024/01/29 03:47:28;;;;;;;2.87;1.97;;;;;;;17.38;45.91;102300.16;10410523;28;20378;-57
2024/01/29 03:52:28;;;;;;;2.83;1.90;;;;;;;17.37;46.84;102296.69;10410918;28;20272;-57
2024/01/29 03:57:28;;;;;;;3.83;2.47;;;;;;;17.37;46.74;102298.53;10411124;28;20622;-57
2024/01/29 04:02:28;;;;;;;3.00;2.07;;;;;;;17.37;46.07;102296.69;10409409;28;20288;-58
2024/01/29 04:07:29;;;;;;;4.43;2.50;;;;;;;17.37;46.52;102302.03;10416123;28;20313;-58
2024/01/29 04:12:29;;;;;;;3.43;2.27;;;;;;;17.37;46.07;102304.72;10417383;28;20307;-57
2024/01/29 04:17:30;;;;;;;3.40;2.50;;;;;;;17.36;47.07;102310.34;10410295;28;20278;-57
2024/01/29 04:22:32;;;;;;;4.68;2.65;;;;;;;17.37;45.68;102315.44;10409951;28;20294;-58
2024/01/29 04:27:32;;;;;;;2.78;1.92;;;;;;;17.36;46.44;102308.47;10421344;28;20033;-57
2024/01/29 04:32:33;;;;;;;2.85;1.90;;;;;;;17.37;46.30;102311.94;10452300;28;20548;-57
2024/01/29 04:37:33;;;;;;;4.15;2.10;;;;;;;17.39;46.05;102316.00;10422704;28;20044;-58
2024/01/29 04:42:33;;;;;;;4.50;2.50;;;;;;;17.42;46.67;102304.81;10424530;28;20283;-58
2024/01/29 04:47:34;;;;;;;4.23;2.73;;;;;;;17.45;47.19;102303.50;10423430;28;20272;-58
2024/01/29 04:52:34;;;;;;;2.85;2.10;;;;;;;17.48;47.27;102298.44;10424313;28;20298;-58
2024/01/29 04:57:34;;;;;;;3.43;2.43;;;;;;;17.46;45.84;102299.75;10424144;28;20021;-59
2024/01/29 05:02:35;;;;;;;4.32;1.98;;;;;;;17.45;47.36;102306.97;10423878;28;20264;-58
2024/01/29 05:07:35;;;;;;;3.78;1.98;;;;;;;17.45;47.06;102298.13;10427996;28;20039;-56
2024/01/29 05:12:36;;;;;;;2.30;1.60;;;;;;;17.38;47.34;102292.13;10415036;28;20129;-57
2024/01/29 05:17:36;;;;;;;2.87;1.80;;;;;;;17.35;47.57;102287.25;10407411;28;20367;-55
2024/01/29 05:22:36;;;;;;;3.17;1.90;;;;;;;17.35;47.52;102282.72;10413894;28;20350;-55
2024/01/29 05:27:37;;;;;;;3.85;1.98;;;;;;;17.33;46.80;102267.94;10416109;28;20284;-53
2024/01/29 05:32:37;;;;;;;2.63;1.60;;;;;;;17.33;45.88;102275.97;10431220;28;20029;-54
2024/01/29 05:37:37;;;;;;;2.87;1.93;;;;;;;17.32;47.51;102285.91;10405306;28;20047;-54
2024/01/29 05:42:38;;;;;;;3.87;2.17;;;;;;;17.33;47.02;102278.66;10404649;28;20264;-54
2024/01/29 05:47:38;;;;;;;4.00;2.03;;;;;;;17.31;46.37;102292.31;10405144;28;20810;-52
2024/01/29 05:52:39;;;;;;;3.30;2.37;;;;;;;17.34;46.78;102301.72;10404456;28;20026;-53
2024/01/29 05:57:39;;;;;;;3.50;2.17;;;;;;;17.32;46.84;102304.66;10404852;28;20353;-55
2024/01/29 06:02:43;;;;;;;3.05;2.20;;;;;;;17.31;46.14;102307.59;10404395;28;20264;-55
2024/01/29 06:07:43;;;;;;;4.57;1.92;;;;;;;17.37;46.83;102307.41;10412132;28;20546;-54
2024/01/29 06:12:43;;;;;;;4.97;2.53;;;;;;;17.57;47.24;102311.41;10416877;28;20045;-54
2024/01/29 06:17:44;;;;;;;7.35;2.50;;;;;;;17.59;46.88;102311.97;10410599;28;20033;-55
2024/01/29 06:22:44;;;;;;;6.75;2.53;;;;;;;17.49;46.96;102310.78;10411392;28;20036;-57
2024/01/29 06:27:45;;;;;;;10.50;3.60;;;;;;;17.49;47.49;102324.19;10411929;28;20103;-58
2024/01/29 06:32:46;;;;;;;10.48;2.90;;;;;;;17.44;48.08;102315.28;10435206;28;20564;-57
2024/01/29 06:37:46;;;;;;;15.80;4.53;;;;;;;17.51;48.45;102323.94;10411790;28;20037;-58
2024/01/29 06:42:46;;;;;;;11.57;3.08;;;;;;;17.47;47.75;102331.66;10410644;28;20026;-58
2024/01/29 06:47:47;;;;;;;16.63;3.37;;;;;;;17.47;49.03;102333.53;10398047;28;20091;-57
2024/01/29 06:52:47;;;;;;;22.08;3.97;;;;;;;17.35;48.82;102325.63;10416532;28;20356;-56
2024/01/29 06:57:48;;;;;;;12.68;3.72;;;;;;;17.38;49.09;102322.44;10451428;28;20024;-55
2024/01/29 07:02:48;;;;;;;9.37;2.93;;;;;;;17.31;49.48;102335.22;10435211;28;20587;-59
2024/01/29 07:07:48;;;;;;;7.93;3.10;;;;;;;17.36;49.30;102364.78;10416109;28;20275;-57
2024/01/29 07:12:49;;;;;;;11.17;3.10;;;;;;;17.36;49.43;102355.91;10415626;28;20814;-55
2024/01/29 07:17:49;;;;;;;12.23;3.47;;;;;;;17.32;49.23;102376.25;10411675;28;20966;-57
2024/01/29 07:22:50;;;;;;;16.13;4.67;;;;;;;17.29;50.22;102382.91;10410599;28;20059;-57
2024/01/29 07:27:50;;;;;;;16.60;3.60;;;;;;;17.35;49.81;102381.09;10412151;28;20378;-58
2024/01/29 07:32:51;;;;;;;13.07;3.13;;;;;;;17.37;50.36;102382.47;10436665;28;20025;-58
2024/01/29 07:37:52;;;;;;;12.25;3.65;;;;;;;17.28;50.65;102375.09;10414453;28;20390;-58
2024/01/29 07:42:52;;;;;;;9.63;3.10;;;;;;;17.32;50.46;102384.28;10417094;28;20052;-56
2024/01/29 07:47:53;;;;;;;14.33;3.03;;;;;;;17.32;50.92;102379.72;10408998;28;20099;-58
2024/01/29 07:52:53;;;;;;;10.37;2.77;;;;;;;17.32;50.22;102377.06;10410139;28;20311;-58
2024/01/29 07:57:53;;;;;;;8.60;2.90;;;;;;;17.31;49.73;102383.47;10410326;28;20327;-57
2024/01/29 08:02:54;;;;;;;7.28;2.58;;;;;;;17.35;51.03;102381.91;10409005;28;20292;-57
2024/01/29 08:07:54;;;;;;;8.43;3.07;;;;;;;17.30;50.10;102383.72;10416829;28;20035;-57
2024/01/29 08:12:54;;;;;;;14.70;3.83;;;;;;;17.27;49.51;102389.56;10413580;28;20310;-45
2024/01/29 08:17:55;;;;;;;10.03;2.83;;;;;;;17.27;49.88;102392.22;10409700;28;20280;-46
2024/01/29 08:22:55;;;;;;;10.85;3.28;;;;;;;17.23;49.96;102405.34;10407522;28;20300;-59
2024/01/29 08:27:56;;;;;;;14.43;3.40;;;;;;;17.27;50.25;102398.41;10418492;28;20029;-47
2024/01/29 08:32:57;;;;;;;11.07;3.83;;;;;;;17.28;49.70;102405.41;10431175;28;20017;-54
2024/01/29 08:37:57;;;;;;;10.37;3.90;;;;;;;17.31;50.01;102406.78;10423246;28;20021;-56
2024/01/29 08:42:57;;;;;;;8.00;3.10;;;;;;;17.26;50.00;102407.50;10414245;28;20295;-57
2024/01/29 08:47:58;;;;;;;17.17;4.35;;;;;;;17.16;50.29;102408.16;10406771;28;20268;-56
2024/01/29 08:52:59;;;;;;;13.45;3.78;;;;;;;17.04;50.17;102403.94;10413055;28;20548;-57
2024/01/29 08:57:59;;;;;;;16.13;3.78;;;;;;;17.00;48.40;102392.91;10449078;28;20021;-56
2024/01/29 09:02:59;;;;;;;11.13;3.88;;;;;;;17.01;49.47;102412.47;10448621;28;20033;-54
2024/01/29 09:08:00;;;;;;;7.03;2.95;;;;;;;17.02;48.32;102404.19;10449205;28;20399;-55
2024/01/29 09:13:00;;;;;;;9.70;4.53;;;;;;;17.04;47.98;102398.59;10410185;28;20041;-55
2024/01/29 09:18:00;;;;;;;10.25;3.03;;;;;;;17.01;48.39;102397.22;10407653;28;20048;-54
2024/01/29 09:23:01;;;;;;;6.80;3.60;;;;;;;17.03;48.65;102397.78;10407207;28;20116;-55
2024/01/29 09:28:01;;;;;;;9.53;3.27;;;;;;;17.01;47.71;102397.22;10407742;28;20367;-52
2024/01/29 09:33:01;;;;;;;8.40;3.30;;;;;;;17.03;47.43;102402.31;10431016;28;20287;-53
2024/01/29 09:38:02;;;;;;;7.18;2.80;;;;;;;17.03;48.04;102400.44;10407301;28;20536;-55
2024/01/29 09:43:05;;;;;;;6.40;3.45;;;;;;;17.02;49.35;102416.78;10406505;28;20120;-54
2024/01/29 09:48:08;;;;;;;5.03;3.00;;;;;;;16.98;47.94;102418.34;10415348;28;20484;-54
2024/01/29 09:53:11;;;;;;;5.07;2.67;;;;;;;16.95;48.03;102425.81;10414204;28;20025;-54
2024/01/29 09:58:11;;;;;;;7.20;2.80;;;;;;;16.94;48.15;102415.34;10415090;28;20025;-53
2024/01/29 10:03:27;;;;;;;6.57;3.17;;;;;;;16.93;48.86;102421.75;10413800;28;20022;-55
2024/01/29 10:08:28;;;;;;;6.15;2.80;;;;;;;16.96;47.76;102421.25;10426829;28;20278;-53
2024/01/29 10:13:29;;;;;;;8.13;3.05;;;;;;;16.99;48.01;102436.03;10413714;28;20385;-54
2024/01/29 10:18:30;;;;;;;5.60;2.70;;;;;;;16.98;49.00;102439.75;10413556;28;20029;-55
2024/01/29 10:23:31;;;;;;;5.88;2.97;;;;;;;16.93;49.06;102441.31;10412943;28;20017;-55
2024/01/29 10:28:31;;;;;;;7.38;3.13;;;;;;;16.89;49.15;102440.16;10413378;28;20357;-55
2024/01/29 10:33:31;;;;;;;3.33;2.43;;;;;;;16.88;48.63;102443.09;10439806;28;20032;-54
2024/01/29 10:38:33;;;;;;;5.23;2.80;;;;;;;16.89;49.29;102455.41;10413605;28;20299;-54
2024/01/29 10:43:38;;;;;;;6.57;3.08;;;;;;;16.88;48.08;102459.16;10420188;28;20299;-56
2024/01/29 10:48:39;;;;;;;4.85;2.80;;;;;;;16.90;48.30;102457.84;10418329;28;20053;-56
2024/01/29 10:53:40;;;;;;;8.05;3.22;;;;;;;16.94;48.50;102460.88;10416534;28;20068;-55
2024/01/29 10:58:41;;;;;;;8.32;3.00;;;;;;;16.98;50.03;102459.34;10426663;28;20029;-57
2024/01/29 11:03:43;;;;;;;9.32;3.00;;;;;;;16.97;50.42;102463.06;10408232;28;20072;-56
2024/01/29 11:08:47;;;;;;;7.18;3.47;;;;;;;17.00;49.50;102465.25;10434758;28;20033;-57
2024/01/29 11:13:48;;;;;;;9.35;2.88;;;;;;;17.02;49.10;102467.69;10440714;28;20408;-58
2024/01/29 11:18:48;;;;;;;8.75;3.40;;;;;;;17.06;49.36;102458.13;10432517;28;20120;-57
2024/01/29 11:23:54;;;;;;;5.03;2.67;;;;;;;17.07;50.56;102451.72;10415812;28;20024;-56
2024/01/29 11:29:01;;;;;;;7.93;2.72;;;;;;;17.09;51.10;102445.06;10418032;28;20084;-55
2024/01/29 11:34:07;;;;;;;7.22;3.03;;;;;;;17.13;50.76;102445.38;10436003;28;20031;-57
2024/01/29 11:39:08;;;;;;;6.80;3.22;;;;;;;17.14;50.23;102441.63;10414867;28;20029;-57
2024/01/29 11:44:09;;;;;;;11.60;2.92;;;;;;;17.16;51.15;102436.84;10418789;28;20078;-55
2024/01/29 11:49:09;;;;;;;8.43;2.77;;;;;;;17.14;49.92;102429.03;10410654;28;20040;-55
2024/01/29 11:54:09;;;;;;;7.68;2.58;;;;;;;17.14;50.92;102437.09;10424858;28;20290;-55
2024/01/29 11:59:11;;;;;;;7.70;3.20;;;;;;;17.14;51.50;102434.41;10451321;28;20049;-55
2024/01/29 12:04:11;;;;;;;5.20;2.65;;;;;;;17.14;50.75;102428.22;10450553;28;20298;-57
2024/01/29 12:09:12;;;;;;;7.10;2.88;;;;;;;17.10;51.14;102433.28;10435493;28;20056;-56
2024/01/29 12:14:12;;;;;;;10.43;3.00;;;;;;;17.13;50.46;102427.41;10408016;28;20052;-57
2024/01/29 12:19:12;;;;;;;11.83;3.60;;;;;;;17.10;51.72;102419.06;10408666;28;20039;-56
2024/01/29 12:24:13;;;;;;;6.45;3.30;;;;;;;17.10;50.60;102422.56;10408693;28;20330;-56
2024/01/29 12:29:14;;;;;;;18.20;4.68;;;;;;;17.07;52.18;102419.56;10408987;28;20029;-56
2024/01/29 12:34:21;;;;;;;20.27;4.22;;;;;;;17.04;52.85;102418.16;10438306;28;20025;-57
2024/01/29 12:39:21;;;;;;;13.68;4.32;;;;;;;17.13;52.01;102418.56;10409712;28;20036;-57
2024/01/29 12:44:25;;;;;;;9.18;3.53;;;;;;;17.09;51.34;102412.91;10408415;28;20063;-55
2024/01/29 12:49:25;;;;;;;18.10;4.00;;;;;;;17.06;51.66;102417.94;10408201;28;20091;-58
2024/01/29 12:54:26;;;;;;;11.77;3.97;;;;;;;17.04;52.45;102402.06;10406991;28;20346;-58
2024/01/29 12:59:26;;;;;;;11.43;4.40;;;;;;;17.00;51.85;102411.66;10407688;28;20068;-57
2024/01/29 13:04:27;;;;;;;6.63;3.10;;;;;;;16.99;52.37;102415.41;10406765;28;20295;-57
2024/01/29 13:09:27;;;;;;;9.18;3.35;;;;;;;17.00;52.47;102410.84;10415592;28;20354;-57
2024/01/29 13:14:28;;;;;;;10.18;2.90;;;;;;;16.97;50.89;102408.66;10448957;28;20041;-58
2024/01/29 13:19:28;;;;;;;7.77;3.57;;;;;;;17.00;50.86;102416.22;10431115;28;20036;-57
2024/01/29 13:24:28;;;;;;;9.83;3.57;;;;;;;16.99;51.20;102414.59;10422628;28;20838;-58
2024/01/29 13:29:29;;;;;;;10.17;3.90;;;;;;;16.90;50.53;102414.19;10417465;28;20355;-58
2024/01/29 13:34:29;;;;;;;9.07;3.97;;;;;;;16.88;50.48;102417.09;10443991;28;21166;-59
2024/01/29 13:39:30;;;;;;;18.47;4.43;;;;;;;16.84;51.90;102418.66;10413980;28;20431;-59
2024/01/29 13:44:31;;;;;;;13.48;4.70;;;;;;;16.83;52.34;102411.66;10414517;28;20287;-58
2024/01/29 13:49:32;;;;;;;28.33;6.50;;;;;;;16.83;52.57;102410.84;10416698;28;20108;-58
2024/01/29 13:54:33;;;;;;;19.10;5.05;;;;;;;16.94;53.85;102401.94;10412386;28;20024;-55
2024/01/29 13:59:35;;;;;;;23.73;5.05;;;;;;;17.07;51.97;102400.78;10414013;28;20033;-58
2024/01/29 14:04:35;;;;;;;24.45;7.18;;;;;;;17.04;53.61;102410.13;10414888;28;20036;-56
2024/01/29 14:09:36;;;;;;;26.63;6.47;;;;;;;16.93;52.50;102406.47;10422294;28;20495;-57
2024/01/29 14:14:36;;;;;;;13.05;4.43;;;;;;;16.91;54.11;102395.16;10431937;28;20120;-58
2024/01/29 14:19:36;;;;;;;21.00;5.65;;;;;;;16.87;54.17;102403.94;10430439;28;20033;-58
2024/01/29 14:24:37;;;;;;;29.60;6.70;;;;;;;16.98;54.23;102402.25;10430152;28;20515;-59
2024/01/29 14:29:38;;;;;;;19.48;5.07;;;;;;;16.92;53.47;102409.38;10452893;28;20278;-58
2024/01/29 14:34:38;;;;;;;29.23;6.70;;;;;;;16.89;53.05;102399.16;10436876;28;20168;-58
2024/01/29 14:39:38;;;;;;;33.03;6.65;;;;;;;16.82;54.50;102403.88;10426999;28;20036;-58
2024/01/29 14:44:39;;;;;;;17.47;6.27;;;;;;;16.79;54.77;102397.13;10436193;28;20032;-57
2024/01/29 14:49:40;;;;;;;21.42;7.35;;;;;;;16.74;54.32;102402.41;10413732;28;20636;-58
2024/01/29 14:54:40;;;;;;;18.25;6.57;;;;;;;16.71;53.84;102415.47;10413095;28;20033;-57
2024/01/29 14:59:41;;;;;;;17.73;6.73;;;;;;;16.72;54.42;102407.19;10413573;28;20036;-58
2024/01/29 15:04:41;;;;;;;18.90;6.95;;;;;;;16.69;55.19;102402.28;10412297;28;20284;-58
2024/01/29 15:09:41;;;;;;;18.77;5.57;;;;;;;16.73;56.81;102408.00;10424251;28;20021;-58
2024/01/29 15:14:41;;;;;;;21.47;6.03;;;;;;;16.69;56.36;102412.19;10412821;28;20320;-58
2024/01/29 15:19:42;;;;;;;19.58;6.10;;;;;;;16.74;56.54;102415.78;10411340;28;20284;-58
2024/01/29 15:24:42;;;;;;;21.55;6.70;;;;;;;16.73;53.98;102421.38;10411731;28;20315;-58
2024/01/29 15:29:42;;;;;;;22.73;6.88;;;;;;;16.82;54.49;102423.44;10414809;28;20385;-58
2024/01/29 15:34:47;;;;;;;27.90;6.60;;;;;;;16.78;54.27;102435.69;10434642;28;20029;-57
2024/01/29 15:39:48;;;;;;;22.50;7.40;;;;;;;16.81;55.84;102443.25;10410626;28;20272;-58
2024/01/29 15:44:48;;;;;;;29.77;6.05;;;;;;;16.78;56.91;102440.22;10433063;28;20033;-56
2024/01/29 15:49:48;;;;;;;21.57;6.87;;;;;;;16.76;55.71;102439.66;10451449;28;20108;-58
2024/01/29 15:54:49;;;;;;;16.48;6.28;;;;;;;16.73;55.69;102443.63;10430048;28;21074;-58
2024/01/29 15:59:49;;;;;;;20.17;5.37;;;;;;;16.80;56.30;102448.81;10409741;28;20029;-57
2024/01/29 16:04:51;;;;;;;24.17;5.97;;;;;;;16.86;55.30;102442.50;10423740;28;20344;-56
2024/01/29 16:09:51;;;;;;;25.40;8.63;;;;;;;16.91;56.07;102443.41;10438018;28;20286;-56
2024/01/29 16:14:51;;;;;;;16.43;6.77;;;;;;;16.82;54.54;102447.56;10431462;28;20045;-56
2024/01/29 16:19:52;;;;;;;24.70;8.23;;;;;;;16.83;56.75;102453.72;10450966;28;20287;-57
2024/01/29 16:24:52;;;;;;;15.70;6.73;;;;;;;16.90;55.84;102447.13;10451718;28;20021;-58
2024/01/29 16:29:54;;;;;;;15.47;6.40;;;;;;;17.14;58.35;102438.94;10419312;28;20300;-57
2024/01/29 16:34:55;;;;;;;15.57;6.00;;;;;;;17.31;57.37;102447.00;10429551;28;20283;-56
2024/01/29 16:39:56;;;;;;;18.83;6.67;;;;;;;17.41;56.70;102441.81;10408711;28;20351;-59
2024/01/29 16:44:56;;;;;;;19.13;7.68;;;;;;;17.43;57.20;102451.22;10409546;28;20292;-56
2024/01/29 16:49:56;;;;;;;14.27;6.03;;;;;;;17.44;56.16;102457.41;10416281;28;20029;-56
2024/01/29 16:54:57;;;;;;;20.70;7.93;;;;;;;17.36;56.85;102466.66;10408069;28;20029;-54
2024/01/29 16:59:57;;;;;;;31.83;9.03;;;;;;;17.50;57.58;102465.25;10405537;28;20279;-55
2024/01/29 17:04:57;;;;;;;24.38;7.90;;;;;;;17.37;57.04;102465.59;10410537;28;20296;-55
2024/01/29 17:09:58;;;;;;;28.37;7.60;;;;;;;17.38;56.88;102461.84;10417455;28;20492;-56
2024/01/29 17:14:58;;;;;;;26.10;8.75;;;;;;;17.34;57.84;102471.44;10439655;28;20325;-57
2024/01/29 17:19:59;;;;;;;27.67;7.40;;;;;;;17.34;55.53;102468.78;10441866;28;20036;-56
2024/01/29 17:24:59;;;;;;;23.33;7.53;;;;;;;17.37;57.26;102468.28;10408706;28;20315;-57
2024/01/29 17:29:59;;;;;;;27.47;8.47;;;;;;;17.25;56.33;102462.19;10429320;28;20385;-55
2024/01/29 17:35:00;;;;;;;22.50;6.53;;;;;;;17.33;56.60;102463.66;10437709;28;20272;-59
2024/01/29 17:40:00;;;;;;;18.90;6.40;;;;;;;17.38;56.29;102469.09;10420353;28;20617;-60
2024/01/29 17:45:01;;;;;;;27.33;7.97;;;;;;;17.38;55.37;102469.91;10413309;28;20435;-63
2024/01/29 17:50:01;;;;;;;18.20;7.00;;;;;;;17.23;57.13;102475.03;10416347;28;20055;-60
2024/01/29 17:55:01;;;;;;;20.67;7.03;;;;;;;17.12;57.10;102467.88;10425329;28;20268;-61
2024/01/29 18:00:04;;;;;;;12.83;6.30;;;;;;;17.06;55.98;102463.50;10425910;28;20025;-60
2024/01/29 18:05:05;;;;;;;16.10;5.88;;;;;;;16.99;56.55;102465.50;10444272;28;20302;-61
2024/01/29 18:10:06;;;;;;;10.38;5.97;;;;;;;16.94;54.82;102463.56;10437338;28;20029;-60
2024/01/29 18:15:07;;;;;;;12.63;5.75;;;;;;;16.94;55.91;102469.75;10456566;28;20131;-60
2024/01/29 18:20:08;;;;;;;13.75;5.57;;;;;;;16.93;54.52;102470.78;10453056;28;20104;-60
2024/01/29 18:25:08;;;;;;;19.20;5.93;;;;;;;16.94;54.44;102471.59;10414679;28;20473;-60
2024/01/29 18:30:12;;;;;;;11.40;5.32;;;;;;;16.97;55.58;102473.78;10422933;28;20431;-61
2024/01/29 18:35:12;;;;;;;11.30;5.47;;;;;;;16.99;54.04;102474.34;10430935;28;20082;-60
2024/01/29 18:40:13;;;;;;;10.43;5.07;;;;;;;16.99;54.32;102474.34;10414036;28;20167;-60
2024/01/29 18:45:13;;;;;;;13.88;5.53;;;;;;;17.05;53.79;102469.88;10412601;28;20295;-61
2024/01/29 18:50:14;;;;;;;7.25;4.78;;;;;;;17.09;54.91;102469.19;10413693;28;20074;-60
2024/01/29 18:55:15;;;;;;;9.15;5.78;;;;;;;17.10;53.18;102459.25;10412560;28;20028;-61
2024/01/29 19:00:16;;;;;;;8.25;5.38;;;;;;;17.13;54.21;102458.78;10410338;28;20060;-60
2024/01/29 19:05:16;;;;;;;8.23;5.28;;;;;;;17.10;53.34;102451.22;10411645;28;20095;-61
2024/01/29 19:10:17;;;;;;;9.98;5.57;;;;;;;17.15;54.10;102452.09;10412724;28;20041;-60
2024/01/29 19:15:17;;;;;;;9.27;5.43;;;;;;;17.17;53.46;102452.69;10412477;28;20042;-61
2024/01/29 19:20:19;;;;;;;8.50;4.60;;;;;;;17.13;53.74;102451.53;10425674;28;20037;-62
2024/01/29 19:25:19;;;;;;;8.05;4.93;;;;;;;17.21;52.77;102453.03;10428544;28;20349;-61
2024/01/29 19:30:20;;;;;;;10.23;5.20;;;;;;;17.24;53.58;102456.00;10425777;28;20032;-60
2024/01/29 19:35:22;;;;;;;9.03;4.67;;;;;;;17.24;52.76;102453.34;10453700;28;20302;-61
2024/01/29 19:40:23;;;;;;;6.55;4.65;;;;;;;17.19;53.06;102463.19;10452889;28;20271;-61
2024/01/29 19:45:23;;;;;;;7.72;5.15;;;;;;;17.16;52.82;102447.56;10434755;28;20089;-60
2024/01/29 19:50:24;;;;;;;8.80;5.45;;;;;;;17.16;52.70;102459.09;10416978;28;20056;-61
2024/01/29 19:55:24;;;;;;;8.53;4.57;;;;;;;17.10;53.22;102453.91;10430990;28;20066;-61
2024/01/29 20:00:24;;;;;;;9.80;5.83;;;;;;;17.09;53.61;102461.13;10427151;28;20299;-61
2024/01/29 20:05:24;;;;;;;7.87;5.10;;;;;;;17.06;53.72;102456.28;10438570;28;20291;-60
2024/01/29 20:10:25;;;;;;;8.45;4.82;;;;;;;17.12;53.91;102457.16;10433616;28;20287;-61
2024/01/29 20:15:25;;;;;;;8.80;5.07;;;;;;;17.11;54.06;102442.13;10423293;28;20505;-59
2024/01/29 20:20:25;;;;;;;8.30;4.63;;;;;;;17.11;52.77;102450.16;10436913;28;20267;-60
2024/01/29 20:25:26;;;;;;;7.13;4.63;;;;;;;17.12;53.75;102438.38;10448463;28;20044;-58
2024/01/29 20:30:26;;;;;;;12.10;5.20;;;;;;;17.12;52.94;102441.06;10434605;28;20311;-60
2024/01/29 20:35:26;;;;;;;12.68;5.18;;;;;;;17.09;52.94;102442.38;10427743;28;20276;-60
2024/01/29 20:40:27;;;;;;;6.40;5.00;;;;;;;17.10;54.13;102435.97;10445385;28;20468;-61
2024/01/29 20:45:29;;;;;;;8.38;4.60;;;;;;;17.09;53.12;102438.88;10450415;28;20299;-61
2024/01/29 20:50:30;;;;;;;11.48;4.97;;;;;;;17.10;53.12;102429.78;10450643;28;20021;-61
2024/01/29 20:55:31;;;;;;;7.13;4.17;;;;;;;17.11;53.35;102424.19;10450313;28;20021;-61
2024/01/29 21:00:31;;;;;;;9.65;4.80;;;;;;;17.16;52.57;102436.84;10449349;28;20282;-61
2024/01/29 21:05:32;;;;;;;6.65;4.05;;;;;;;17.15;52.79;102430.66;10449887;28;20388;-61
2024/01/29 21:10:32;;;;;;;7.40;5.18;;;;;;;17.15;53.83;102432.53;10432321;28;20029;-61
2024/01/29 21:15:33;;;;;;;9.10;4.43;;;;;;;17.15;53.10;102437.91;10408672;28;20049;-61
2024/01/29 21:20:33;;;;;;;7.90;4.00;;;;;;;17.14;52.48;102442.44;10409027;28;20022;-61
2024/01/29 21:25:33;;;;;;;6.43;4.27;;;;;;;17.18;52.22;102442.78;10408463;28;20029;-61
2024/01/29 21:30:34;;;;;;;10.20;4.50;;;;;;;17.20;52.40;102443.34;10424558;28;20724;-60
2024/01/29 21:35:34;;;;;;;6.72;3.78;;;;;;;17.18;53.10;102438.25;10418467;28;20272;-61
2024/01/29 21:40:35;;;;;;;8.00;4.53;;;;;;;17.21;52.26;102428.91;10412940;28;20411;-60
2024/01/29 21:45:35;;;;;;;5.88;4.13;;;;;;;17.17;53.21;102431.25;10416364;28;20294;-61
2024/01/29 21:50:35;;;;;;;5.43;3.80;;;;;;;17.16;52.24;102423.44;10416470;28;20029;-60
2024/01/29 21:55:36;;;;;;;5.68;4.03;;;;;;;17.17;52.08;102428.56;10414502;28;20288;-61
2024/01/29 22:00:36;;;;;;;5.33;3.60;;;;;;;17.20;52.41;102443.34;10416368;28;20146;-61
2024/01/29 22:05:38;;;;;;;6.30;4.00;;;;;;;17.18;53.31;102426.72;10415379;28;20367;-61
2024/01/29 22:10:39;;;;;;;6.25;4.28;;;;;;;17.19;51.94;102429.13;10428305;28;20288;-61
2024/01/29 22:15:39;;;;;;;5.65;3.90;;;;;;;17.22;52.02;102439.38;10415054;28;20520;-61
2024/01/29 22:20:39;;;;;;;6.18;4.72;;;;;;;17.19;51.61;102421.09;10415289;28;20048;-61
2024/01/29 22:25:40;;;;;;;5.50;4.07;;;;;;;17.19;52.87;102418.41;10414707;28;20029;-61
2024/01/29 22:30:40;;;;;;;6.40;3.50;;;;;;;17.19;51.71;102423.78;10432815;28;20271;-61
2024/01/29 22:35:42;;;;;;;7.75;4.72;;;;;;;17.19;52.04;102429.13;10421792;28;20631;-61
2024/01/29 22:40:43;;;;;;;7.93;3.90;;;;;;;17.20;51.96;102433.44;10426112;28;20113;-59
2024/01/29 22:45:43;;;;;;;5.97;4.10;;;;;;;17.21;52.42;102436.94;10414092;28;20029;-61
2024/01/29 22:50:43;;;;;;;5.77;3.27;;;;;;;17.25;52.84;102432.69;10412257;28;20372;-61
2024/01/29 22:55:44;;;;;;;6.23;4.70;;;;;;;17.25;52.82;102424.66;10413781;28;20283;-61